sensor_id;sensor_type;location;lat;lon;timestamp;pressure;altitude;pressure_sealevel;temperature;humidity
75538;BME280;64121;48.666;8.114;2022-12-18T00:01:49;101288.94;;;-7.30;100.00
75538;BME280;64121;48.666;8.114;2022-12-18T00:04:18;101298.09;;;-7.32;100.00
75538;BME280;64121;48.666;8.114;2022-12-18T00:06:45;101296.22;;;-7.31;100.00
75538;BME280;64121;48.666;8.114;2022-12-18T00:09:10;101291.56;;;-7.44;100.00
75538;BME280;64121;48.666;8.114;2022-12-18T00:11:37;101295.88;;;-7.56;100.00
75538;BME280;64121;48.666;8.114;2022-12-18T00:14:02;101301.75;;;-7.46;100.00
75538;BME280;64121;48.666;8.114;2022-12-18T00:16:28;101302.25;;;-7.36;100.00
75538;BME280;64121;48.666;8.114;2022-12-18T00:18:58;101292.88;;;-7.33;100.00
75538;BME280;64121;48.666;8.114;2022-12-18T00:21:23;101294.97;;;-7.35;100.00
75538;BME280;64121;48.666;8.114;2022-12-18T00:23:50;101302.00;;;-7.41;100.00
75538;BME280;64121;48.666;8.114;2022-12-18T00:26:17;101307.34;;;-7.47;100.00
75538;BME280;64121;48.666;8.114;2022-12-18T00:28:45;101310.13;;;-7.41;100.00
75538;BME280;64121;48.666;8.114;2022-12-18T00:31:12;101302.00;;;-7.41;100.00
75538;BME280;64121;48.666;8.114;2022-12-18T00:33:38;101299.09;;;-7.39;100.00
75538;BME280;64121;48.666;8.114;2022-12-18T00:36:05;101300.59;;;-7.30;100.00
75538;BME280;64121;48.666;8.114;2022-12-18T00:38:31;101295.00;;;-7.28;100.00
75538;BME280;64121;48.666;8.114;2022-12-18T00:40:56;101297.28;;;-7.25;100.00
75538;BME280;64121;48.666;8.114;2022-12-18T00:43:22;101302.44;;;-7.37;100.00
75538;BME280;64121;48.666;8.114;2022-12-18T00:45:48;101296.63;;;-7.34;100.00
75538;BME280;64121;48.666;8.114;2022-12-18T00:48:14;101297.91;;;-7.30;100.00
75538;BME280;64121;48.666;8.114;2022-12-18T00:50:39;101298.53;;;-7.28;100.00
75538;BME280;64121;48.666;8.114;2022-12-18T00:53:05;101301.03;;;-7.26;100.00
75538;BME280;64121;48.666;8.114;2022-12-18T00:55:30;101290.06;;;-7.18;100.00
75538;BME280;64121;48.666;8.114;2022-12-18T00:57:55;101281.13;;;-7.19;100.00
75538;BME280;64121;48.666;8.114;2022-12-18T01:00:21;101275.28;;;-7.22;100.00
75538;BME280;64121;48.666;8.114;2022-12-18T01:02:48;101269.03;;;-7.23;100.00
75538;BME280;64121;48.666;8.114;2022-12-18T01:05:14;101264.06;;;-7.19;100.00
75538;BME280;64121;48.666;8.114;2022-12-18T01:07:39;101269.91;;;-7.16;100.00
75538;BME280;64121;48.666;8.114;2022-12-18T01:10:06;101287.47;;;-7.33;100.00
75538;BME280;64121;48.666;8.114;2022-12-18T01:12:32;101283.34;;;-7.29;100.00
75538;BME280;64121;48.666;8.114;2022-12-18T01:14:57;101293.13;;;-7.28;100.00
75538;BME280;64121;48.666;8.114;2022-12-18T01:17:23;101299.63;;;-7.22;100.00
75538;BME280;64121;48.666;8.114;2022-12-18T01:19:50;101303.56;;;-7.25;100.00
75538;BME280;64121;48.666;8.114;2022-12-18T01:22:15;101309.59;;;-7.23;100.00
75538;BME280;64121;48.666;8.114;2022-12-18T01:24:40;101303.09;;;-7.28;100.00
75538;BME280;64121;48.666;8.114;2022-12-18T01:27:06;101294.16;;;-7.29;100.00
75538;BME280;64121;48.666;8.114;2022-12-18T01:29:31;101292.91;;;-7.26;100.00
75538;BME280;64121;48.666;8.114;2022-12-18T01:31:56;101317.66;;;-7.29;100.00
75538;BME280;64121;48.666;8.114;2022-12-18T01:34:22;101321.63;;;-7.25;100.00
75538;BME280;64121;48.666;8.114;2022-12-18T01:36:48;101317.41;;;-7.35;100.00
75538;BME280;64121;48.666;8.114;2022-12-18T01:39:14;101328.66;;;-7.31;100.00
75538;BME280;64121;48.666;8.114;2022-12-18T01:41:40;101333.88;;;-7.29;100.00
75538;BME280;64121;48.666;8.114;2022-12-18T01:47:05;101324.16;;;-7.24;100.00
75538;BME280;64121;48.666;8.114;2022-12-18T01:49:30;101316.19;;;-7.32;100.00
75538;BME280;64121;48.666;8.114;2022-12-18T01:51:57;101311.59;;;-7.38;100.00
75538;BME280;64121;48.666;8.114;2022-12-18T01:54:22;101309.66;;;-7.44;100.00
75538;BME280;64121;48.666;8.114;2022-12-18T01:56:47;101312.63;;;-7.39;100.00
75538;BME280;64121;48.666;8.114;2022-12-18T01:59:13;101317.81;;;-7.38;100.00
75538;BME280;64121;48.666;8.114;2022-12-18T02:01:38;101325.53;;;-7.35;100.00
75538;BME280;64121;48.666;8.114;2022-12-18T02:04:20;101320.16;;;-7.28;100.00
75538;BME280;64121;48.666;8.114;2022-12-18T02:06:49;101316.22;;;-7.25;100.00
75538;BME280;64121;48.666;8.114;2022-12-18T02:09:20;101309.97;;;-7.26;100.00
75538;BME280;64121;48.666;8.114;2022-12-18T02:11:57;101322.63;;;-7.33;100.00
75538;BME280;64121;48.666;8.114;2022-12-18T02:14:28;101322.22;;;-7.30;100.00
75538;BME280;64121;48.666;8.114;2022-12-18T02:17:01;101315.97;;;-7.30;100.00
75538;BME280;64121;48.666;8.114;2022-12-18T02:19:41;101318.66;;;-7.37;100.00
75538;BME280;64121;48.666;8.114;2022-12-18T02:22:22;101314.91;;;-7.36;100.00
75538;BME280;64121;48.666;8.114;2022-12-18T02:25:00;101319.06;;;-7.40;99.99
75538;BME280;64121;48.666;8.114;2022-12-18T02:27:32;101322.78;;;-7.41;100.00
75538;BME280;64121;48.666;8.114;2022-12-18T02:30:01;101328.00;;;-7.40;100.00
75538;BME280;64121;48.666;8.114;2022-12-18T02:32:28;101322.22;;;-7.30;100.00
75538;BME280;64121;48.666;8.114;2022-12-18T02:34:56;101321.97;;;-7.42;100.00
75538;BME280;64121;48.666;8.114;2022-12-18T02:37:24;101324.78;;;-7.56;100.00
75538;BME280;64121;48.666;8.114;2022-12-18T02:39:54;101320.69;;;-7.74;100.00
75538;BME280;64121;48.666;8.114;2022-12-18T02:42:22;101316.22;;;-7.60;100.00
75538;BME280;64121;48.666;8.114;2022-12-18T02:44:50;101310.69;;;-7.80;100.00
75538;BME280;64121;48.666;8.114;2022-12-18T02:47:18;101314.66;;;-7.76;100.00
75538;BME280;64121;48.666;8.114;2022-12-18T02:49:51;101317.19;;;-7.68;100.00
75538;BME280;64121;48.666;8.114;2022-12-18T02:52:25;101318.63;;;-7.72;100.00
75538;BME280;64121;48.666;8.114;2022-12-18T02:55:01;101313.72;;;-7.61;100.00
75538;BME280;64121;48.666;8.114;2022-12-18T02:57:34;101317.69;;;-7.57;100.00
75538;BME280;64121;48.666;8.114;2022-12-18T03:00:07;101322.31;;;-7.51;100.00
75538;BME280;64121;48.666;8.114;2022-12-18T03:02:37;101321.47;;;-7.52;100.00
75538;BME280;64121;48.666;8.114;2022-12-18T03:05:08;101329.16;;;-7.49;100.00
75538;BME280;64121;48.666;8.114;2022-12-18T03:07:39;101333.97;;;-7.44;100.00
75538;BME280;64121;48.666;8.114;2022-12-18T03:10:09;101336.13;;;-7.40;100.00
75538;BME280;64121;48.666;8.114;2022-12-18T03:12:40;101333.00;;;-7.37;100.00
75538;BME280;64121;48.666;8.114;2022-12-18T03:15:13;101342.78;;;-7.36;100.00
75538;BME280;64121;48.666;8.114;2022-12-18T03:17:42;101341.44;;;-7.46;100.00
75538;BME280;64121;48.666;8.114;2022-12-18T03:20:12;101349.19;;;-7.43;100.00
75538;BME280;64121;48.666;8.114;2022-12-18T03:22:39;101334.56;;;-7.49;100.00
75538;BME280;64121;48.666;8.114;2022-12-18T03:25:09;101334.44;;;-7.41;100.00
75538;BME280;64121;48.666;8.114;2022-12-18T03:27:37;101323.22;;;-7.38;100.00
75538;BME280;64121;48.666;8.114;2022-12-18T03:30:10;101327.81;;;-7.38;100.00
75538;BME280;64121;48.666;8.114;2022-12-18T03:32:41;101334.22;;;-7.67;100.00
75538;BME280;64121;48.666;8.114;2022-12-18T03:35:10;101325.25;;;-7.74;100.00
75538;BME280;64121;48.666;8.114;2022-12-18T03:37:40;101328.50;;;-7.57;100.00
75538;BME280;64121;48.666;8.114;2022-12-18T03:40:06;101336.31;;;-7.69;100.00
75538;BME280;64121;48.666;8.114;2022-12-18T03:42:37;101346.28;;;-7.70;100.00
75538;BME280;64121;48.666;8.114;2022-12-18T03:45:11;101340.47;;;-7.67;100.00
75538;BME280;64121;48.666;8.114;2022-12-18T03:47:40;101334.66;;;-7.64;100.00
75538;BME280;64121;48.666;8.114;2022-12-18T03:50:12;101332.63;;;-7.61;100.00
75538;BME280;64121;48.666;8.114;2022-12-18T03:52:44;101332.31;;;-7.73;100.00
75538;BME280;64121;48.666;8.114;2022-12-18T03:55:12;101335.66;;;-7.71;100.00
75538;BME280;64121;48.666;8.114;2022-12-18T03:57:38;101338.06;;;-7.83;100.00
75538;BME280;64121;48.666;8.114;2022-12-18T04:00:08;101342.91;;;-7.78;100.00
75538;BME280;64121;48.666;8.114;2022-12-18T04:02:36;101331.09;;;-7.71;100.00
75538;BME280;64121;48.666;8.114;2022-12-18T04:05:05;101323.72;;;-7.55;100.00
75538;BME280;64121;48.666;8.114;2022-12-18T04:07:32;101336.00;;;-7.53;100.00
75538;BME280;64121;48.666;8.114;2022-12-18T04:09:58;101340.19;;;-7.50;100.00
75538;BME280;64121;48.666;8.114;2022-12-18T04:12:25;101327.94;;;-7.46;100.00
75538;BME280;64121;48.666;8.114;2022-12-18T04:14:50;101325.44;;;-7.48;100.00
75538;BME280;64121;48.666;8.114;2022-12-18T04:17:15;101328.78;;;-7.46;100.00
75538;BME280;64121;48.666;8.114;2022-12-18T04:19:42;101319.25;;;-7.42;100.00
75538;BME280;64121;48.666;8.114;2022-12-18T04:22:09;101320.09;;;-7.41;100.00
75538;BME280;64121;48.666;8.114;2022-12-18T04:24:34;101306.13;;;-7.45;100.00
75538;BME280;64121;48.666;8.114;2022-12-18T04:26:59;101302.22;;;-7.42;100.00
75538;BME280;64121;48.666;8.114;2022-12-18T04:29:25;101300.53;;;-7.43;100.00
75538;BME280;64121;48.666;8.114;2022-12-18T04:31:50;101307.34;;;-7.47;100.00
75538;BME280;64121;48.666;8.114;2022-12-18T04:34:15;101300.91;;;-7.46;100.00
75538;BME280;64121;48.666;8.114;2022-12-18T04:36:42;101310.06;;;-7.47;100.00
75538;BME280;64121;48.666;8.114;2022-12-18T04:39:07;101311.53;;;-7.45;100.00
75538;BME280;64121;48.666;8.114;2022-12-18T04:41:33;101314.44;;;-7.46;100.00
75538;BME280;64121;48.666;8.114;2022-12-18T04:43:58;101320.22;;;-7.49;100.00
75538;BME280;64121;48.666;8.114;2022-12-18T04:46:23;101322.91;;;-7.56;100.00
75538;BME280;64121;48.666;8.114;2022-12-18T04:48:49;101318.75;;;-7.52;100.00
75538;BME280;64121;48.666;8.114;2022-12-18T04:51:14;101325.44;;;-7.48;100.00
75538;BME280;64121;48.666;8.114;2022-12-18T04:53:41;101320.66;;;-7.46;100.00
75538;BME280;64121;48.666;8.114;2022-12-18T04:56:09;101327.66;;;-7.58;100.00
75538;BME280;64121;48.666;8.114;2022-12-18T04:58:35;101329.53;;;-7.58;100.00
75538;BME280;64121;48.666;8.114;2022-12-18T05:01:00;101325.44;;;-7.48;100.00
75538;BME280;64121;48.666;8.114;2022-12-18T05:03:26;101327.16;;;-7.40;100.00
75538;BME280;64121;48.666;8.114;2022-12-18T05:05:51;101329.88;;;-7.40;100.00
75538;BME280;64121;48.666;8.114;2022-12-18T05:08:17;101340.63;;;-7.47;100.00
75538;BME280;64121;48.666;8.114;2022-12-18T05:10:44;101334.22;;;-7.67;100.00
75538;BME280;64121;48.666;8.114;2022-12-18T05:13:09;101335.91;;;-7.66;100.00
75538;BME280;64121;48.666;8.114;2022-12-18T05:15:35;101330.22;;;-7.78;100.00
75538;BME280;64121;48.666;8.114;2022-12-18T05:18:00;101316.31;;;-7.75;100.00
75538;BME280;64121;48.666;8.114;2022-12-18T05:20:27;101321.31;;;-7.72;100.00
75538;BME280;64121;48.666;8.114;2022-12-18T05:22:53;101324.97;;;-7.58;100.00
75538;BME280;64121;48.666;8.114;2022-12-18T05:25:19;101324.91;;;-7.65;100.00
75538;BME280;64121;48.666;8.114;2022-12-18T05:27:47;101335.97;;;-7.59;100.00
75538;BME280;64121;48.666;8.114;2022-12-18T05:30:13;101323.00;;;-7.71;100.00
75538;BME280;64121;48.666;8.114;2022-12-18T05:32:38;101320.13;;;-7.63;100.00
75538;BME280;64121;48.666;8.114;2022-12-18T05:35:06;101329.13;;;-7.55;100.00
75538;BME280;64121;48.666;8.114;2022-12-18T05:37:31;101326.88;;;-7.52;100.00
75538;BME280;64121;48.666;8.114;2022-12-18T05:39:57;101324.47;;;-7.40;100.00
75538;BME280;64121;48.666;8.114;2022-12-18T05:42:22;101328.78;;;-7.46;100.00
75538;BME280;64121;48.666;8.114;2022-12-18T05:44:49;101327.81;;;-7.38;100.00
75538;BME280;64121;48.666;8.114;2022-12-18T05:47:14;101328.53;;;-7.51;100.00
75538;BME280;64121;48.666;8.114;2022-12-18T05:49:39;101330.44;;;-7.45;100.00
75538;BME280;64121;48.666;8.114;2022-12-18T05:52:05;101324.66;;;-7.42;99.71
75538;BME280;64121;48.666;8.114;2022-12-18T05:54:30;101334.66;;;-7.42;99.21
75538;BME280;64121;48.666;8.114;2022-12-18T05:56:56;101324.00;;;-7.44;99.29
75538;BME280;64121;48.666;8.114;2022-12-18T05:59:21;101334.47;;;-7.34;99.68
75538;BME280;64121;48.666;8.114;2022-12-18T06:01:48;101333.00;;;-7.37;98.90
75538;BME280;64121;48.666;8.114;2022-12-18T06:04:13;101343.13;;;-7.45;98.70
75538;BME280;64121;48.666;8.114;2022-12-18T06:06:38;101353.72;;;-7.44;98.70
75538;BME280;64121;48.666;8.114;2022-12-18T06:09:04;101362.75;;;-7.37;98.30
75538;BME280;64121;48.666;8.114;2022-12-18T06:11:29;101374.00;;;-7.33;98.10
75538;BME280;64121;48.666;8.114;2022-12-18T06:13:56;101376.25;;;-7.37;98.02
75538;BME280;64121;48.666;8.114;2022-12-18T06:16:21;101388.50;;;-7.41;98.19
75538;BME280;64121;48.666;8.114;2022-12-18T06:18:48;101395.38;;;-7.38;97.67
75538;BME280;64121;48.666;8.114;2022-12-18T06:21:13;101386.25;;;-7.37;98.26
75538;BME280;64121;48.666;8.114;2022-12-18T06:23:39;101392.09;;;-7.34;98.12
75538;BME280;64121;48.666;8.114;2022-12-18T06:26:05;101386.06;;;-7.29;97.85
75538;BME280;64121;48.666;8.114;2022-12-18T06:28:31;101386.88;;;-7.35;98.35
75538;BME280;64121;48.666;8.114;2022-12-18T06:30:56;101390.44;;;-7.28;97.78
75538;BME280;64121;48.666;8.114;2022-12-18T06:33:21;101390.72;;;-7.23;97.48
75538;BME280;64121;48.666;8.114;2022-12-18T06:35:48;101393.31;;;-7.36;97.82
75538;BME280;64121;48.666;8.114;2022-12-18T06:38:13;101399.31;;;-7.41;97.65
75538;BME280;64121;48.666;8.114;2022-12-18T06:40:39;101394.59;;;-7.32;97.17
75538;BME280;64121;48.666;8.114;2022-12-18T06:43:04;101388.69;;;-7.42;97.70
75538;BME280;64121;48.666;8.114;2022-12-18T06:45:29;101386.25;;;-7.37;97.80
75538;BME280;64121;48.666;8.114;2022-12-18T06:47:55;101389.97;;;-7.38;97.61
75538;BME280;64121;48.666;8.114;2022-12-18T06:50:20;101397.25;;;-7.39;96.69
75538;BME280;64121;48.666;8.114;2022-12-18T06:52:46;101399.63;;;-7.50;97.11
75538;BME280;64121;48.666;8.114;2022-12-18T06:55:12;101386.56;;;-7.47;96.95
75538;BME280;64121;48.666;8.114;2022-12-18T06:57:37;101390.50;;;-7.49;97.63
75538;BME280;64121;48.666;8.114;2022-12-18T07:00:05;101391.97;;;-7.47;97.03
75538;BME280;64121;48.666;8.114;2022-12-18T07:02:31;101389.47;;;-7.48;97.29
75538;BME280;64121;48.666;8.114;2022-12-18T07:04:56;101396.16;;;-7.44;97.27
75538;BME280;64121;48.666;8.114;2022-12-18T07:07:22;101393.50;;;-7.38;96.98
75538;BME280;64121;48.666;8.114;2022-12-18T07:09:49;101390.81;;;-7.38;97.41
75538;BME280;64121;48.666;8.114;2022-12-18T07:12:14;101386.44;;;-7.39;97.59
75538;BME280;64121;48.666;8.114;2022-12-18T07:14:39;101391.28;;;-7.27;97.41
75538;BME280;64121;48.666;8.114;2022-12-18T07:17:05;101388.09;;;-7.38;97.72
75538;BME280;64121;48.666;8.114;2022-12-18T07:19:30;101393.31;;;-7.36;96.72
75538;BME280;64121;48.666;8.114;2022-12-18T07:21:55;101398.72;;;-7.36;97.83
75538;BME280;64121;48.666;8.114;2022-12-18T07:24:21;101397.28;;;-7.32;97.92
75538;BME280;64121;48.666;8.114;2022-12-18T07:26:47;101402.69;;;-7.32;97.30
75538;BME280;64121;48.666;8.114;2022-12-18T07:29:13;101405.38;;;-7.39;97.22
75538;BME280;64121;48.666;8.114;2022-12-18T07:31:39;101403.88;;;-7.41;97.54
75538;BME280;64121;48.666;8.114;2022-12-18T07:34:04;101406.66;;;-7.28;97.76
75538;BME280;64121;48.666;8.114;2022-12-18T07:36:29;101400.00;;;-7.32;98.14
75538;BME280;64121;48.666;8.114;2022-12-18T07:38:55;101401.66;;;-7.31;97.48
75538;BME280;64121;48.666;8.114;2022-12-18T07:41:20;101401.44;;;-7.36;97.61
75538;BME280;64121;48.666;8.114;2022-12-18T07:43:47;101406.94;;;-7.23;97.73
75538;BME280;64121;48.666;8.114;2022-12-18T07:46:14;101416.66;;;-7.28;97.78
75538;BME280;64121;48.666;8.114;2022-12-18T07:48:40;101423.72;;;-7.27;97.42
75538;BME280;64121;48.666;8.114;2022-12-18T07:51:06;101430.56;;;-7.32;97.68
75538;BME280;64121;48.666;8.114;2022-12-18T07:53:32;101423.38;;;-7.24;97.57
75538;BME280;64121;48.666;8.114;2022-12-18T07:55:59;101430.63;;;-7.25;97.17
75538;BME280;64121;48.666;8.114;2022-12-18T07:58:25;101436.28;;;-7.20;97.30
75538;BME280;64121;48.666;8.114;2022-12-18T08:00:52;101446.47;;;-7.22;97.16
75538;BME280;64121;48.666;8.114;2022-12-18T08:03:17;101452.22;;;-7.04;96.84
75538;BME280;64121;48.666;8.114;2022-12-18T08:05:42;101438.13;;;-6.92;96.68
75538;BME280;64121;48.666;8.114;2022-12-18T08:08:08;101434.75;;;-7.01;96.50
75538;BME280;64121;48.666;8.114;2022-12-18T08:10:33;101437.84;;;-7.04;96.19
75538;BME280;64121;48.666;8.114;2022-12-18T08:12:58;101434.84;;;-6.88;95.83
75538;BME280;64121;48.666;8.114;2022-12-18T08:15:24;101436.69;;;-6.88;94.91
75538;BME280;64121;48.666;8.114;2022-12-18T08:17:50;101447.72;;;-6.90;94.85
75538;BME280;64121;48.666;8.114;2022-12-18T08:20:16;101437.59;;;-6.81;94.83
75538;BME280;64121;48.666;8.114;2022-12-18T08:22:41;101425.72;;;-6.80;95.37
75538;BME280;64121;48.666;8.114;2022-12-18T08:25:07;101427.19;;;-6.78;94.44
75538;BME280;64121;48.666;8.114;2022-12-18T08:27:33;101420.09;;;-6.85;94.54
75538;BME280;64121;48.666;8.114;2022-12-18T08:29:58;101424.47;;;-6.84;94.71
75538;BME280;64121;48.666;8.114;2022-12-18T08:32:23;101411.38;;;-6.81;94.44
75538;BME280;64121;48.666;8.114;2022-12-18T08:34:50;101418.03;;;-6.77;94.01
75538;BME280;64121;48.666;8.114;2022-12-18T08:37:16;101412.00;;;-6.79;94.02
75538;BME280;64121;48.666;8.114;2022-12-18T08:39:41;101404.72;;;-6.72;93.81
75538;BME280;64121;48.666;8.114;2022-12-18T08:42:06;101400.84;;;-6.62;94.08
75538;BME280;64121;48.666;8.114;2022-12-18T08:44:32;101391.59;;;-6.75;93.45
75538;BME280;64121;48.666;8.114;2022-12-18T08:46:58;101395.44;;;-6.62;93.35
75538;BME280;64121;48.666;8.114;2022-12-18T08:49:23;101394.00;;;-6.52;93.04
75538;BME280;64121;48.666;8.114;2022-12-18T08:51:53;101394.31;;;-6.75;93.36
75538;BME280;64121;48.666;8.114;2022-12-18T08:54:19;101388.78;;;-6.94;92.92
75538;BME280;64121;48.666;8.114;2022-12-18T08:56:44;101395.34;;;-6.76;92.81
75538;BME280;64121;48.666;8.114;2022-12-18T08:59:09;101400.53;;;-6.81;93.51
75538;BME280;64121;48.666;8.114;2022-12-18T09:01:35;101402.28;;;-6.66;93.44
75538;BME280;64121;48.666;8.114;2022-12-18T09:04:00;101392.44;;;-6.74;93.34
75538;BME280;64121;48.666;8.114;2022-12-18T09:06:25;101390.31;;;-6.85;94.18
75538;BME280;64121;48.666;8.114;2022-12-18T09:08:52;101396.03;;;-6.67;93.25
75538;BME280;64121;48.666;8.114;2022-12-18T09:11:20;101398.56;;;-6.59;92.90
75538;BME280;64121;48.666;8.114;2022-12-18T09:13:46;101407.28;;;-6.63;93.08
75538;BME280;64121;48.666;8.114;2022-12-18T09:16:11;101412.94;;;-6.52;93.77
75538;BME280;64121;48.666;8.114;2022-12-18T09:18:36;101418.53;;;-6.60;93.46
75538;BME280;64121;48.666;8.114;2022-12-18T09:21:08;101430.69;;;-6.49;92.26
75538;BME280;64121;48.666;8.114;2022-12-18T09:23:33;101422.56;;;-6.49;92.19
75538;BME280;64121;48.666;8.114;2022-12-18T09:26:00;101430.03;;;-6.51;92.71
75538;BME280;64121;48.666;8.114;2022-12-18T09:28:25;101433.47;;;-6.71;93.29
75538;BME280;64121;48.666;8.114;2022-12-18T09:30:51;101436.94;;;-6.49;92.81
75538;BME280;64121;48.666;8.114;2022-12-18T09:33:16;101439.06;;;-6.37;92.46
75538;BME280;64121;48.666;8.114;2022-12-18T09:35:43;101445.25;;;-6.50;92.51
75538;BME280;64121;48.666;8.114;2022-12-18T09:38:11;101445.13;;;-6.29;91.72
75538;BME280;64121;48.666;8.114;2022-12-18T09:40:42;101439.97;;;-6.17;91.60
75538;BME280;64121;48.666;8.114;2022-12-18T09:43:14;101456.88;;;-6.08;91.06
75538;BME280;64121;48.666;8.114;2022-12-18T09:45:44;101456.47;;;-6.05;90.81
75538;BME280;64121;48.666;8.114;2022-12-18T09:48:17;101462.19;;;-6.35;91.02
75538;BME280;64121;48.666;8.114;2022-12-18T09:50:44;101459.34;;;-6.14;91.11
75538;BME280;64121;48.666;8.114;2022-12-18T09:53:15;101467.94;;;-5.97;90.09
75538;BME280;64121;48.666;8.114;2022-12-18T09:55:45;101467.94;;;-5.97;90.02
75538;BME280;64121;48.666;8.114;2022-12-18T09:58:17;101469.78;;;-6.11;90.53
75538;BME280;64121;48.666;8.114;2022-12-18T10:00:44;101482.38;;;-5.90;90.68
75538;BME280;64121;48.666;8.114;2022-12-18T10:03:11;101477.34;;;-5.80;89.70
75538;BME280;64121;48.666;8.114;2022-12-18T10:05:41;101479.72;;;-5.57;89.11
75538;BME280;64121;48.666;8.114;2022-12-18T10:08:13;101471.28;;;-5.88;88.98
75538;BME280;64121;48.666;8.114;2022-12-18T10:10:46;101466.72;;;-5.94;89.28
75538;BME280;64121;48.666;8.114;2022-12-18T10:13:23;101455.44;;;-5.85;89.90
75538;BME280;64121;48.666;8.114;2022-12-18T10:16:00;101451.69;;;-5.77;89.55
75538;BME280;64121;48.666;8.114;2022-12-18T10:18:41;101445.28;;;-5.63;89.09
75538;BME280;64121;48.666;8.114;2022-12-18T10:21:12;101439.03;;;-5.43;88.01
75538;BME280;64121;48.666;8.114;2022-12-18T10:23:45;101436.13;;;-5.55;88.33
75538;BME280;64121;48.666;8.114;2022-12-18T10:26:14;101446.94;;;-5.75;87.17
75538;BME280;64121;48.666;8.114;2022-12-18T10:28:41;101420.03;;;-5.90;87.95
75538;BME280;64121;48.666;8.114;2022-12-18T10:31:06;101431.03;;;-6.11;88.87
75538;BME280;64121;48.666;8.114;2022-12-18T10:33:33;101434.41;;;-5.96;88.84
75538;BME280;64121;48.666;8.114;2022-12-18T10:35:59;101431.47;;;-5.81;88.75
75538;BME280;64121;48.666;8.114;2022-12-18T10:38:26;101435.50;;;-5.57;87.54
75538;BME280;64121;48.666;8.114;2022-12-18T10:40:54;101424.88;;;-5.19;86.95
75538;BME280;64121;48.666;8.114;2022-12-18T10:43:22;101421.91;;;-4.91;86.48
75538;BME280;64121;48.666;8.114;2022-12-18T10:46:01;101415.84;;;-4.80;85.80
75538;BME280;64121;48.666;8.114;2022-12-18T10:48:28;101431.91;;;-4.78;84.74
75538;BME280;64121;48.666;8.114;2022-12-18T10:50:55;101418.75;;;-4.88;84.62
75538;BME280;64121;48.666;8.114;2022-12-18T10:53:23;101402.69;;;-4.83;85.27
75538;BME280;64121;48.666;8.114;2022-12-18T10:55:49;101410.44;;;-5.13;86.21
75538;BME280;64121;48.666;8.114;2022-12-18T10:58:22;101412.34;;;-5.20;87.19
75538;BME280;64121;48.666;8.114;2022-12-18T11:01:04;101405.41;;;-4.96;86.75
75538;BME280;64121;48.666;8.114;2022-12-18T11:03:32;101410.19;;;-4.78;86.38
75538;BME280;64121;48.666;8.114;2022-12-18T11:06:03;101425.19;;;-4.69;83.78
75538;BME280;64121;48.666;8.114;2022-12-18T11:08:28;101416.09;;;-5.01;85.31
75538;BME280;64121;48.666;8.114;2022-12-18T11:10:54;101408.97;;;-4.96;85.61
75538;BME280;64121;48.666;8.114;2022-12-18T11:13:21;101414.41;;;-5.09;86.62
75538;BME280;64121;48.666;8.114;2022-12-18T11:15:47;101411.09;;;-5.18;87.37
75538;BME280;64121;48.666;8.114;2022-12-18T11:18:20;101411.47;;;-5.07;87.13
75538;BME280;64121;48.666;8.114;2022-12-18T11:20:52;101406.00;;;-4.88;87.10
75538;BME280;64121;48.666;8.114;2022-12-18T11:23:18;101417.53;;;-5.05;87.30
75538;BME280;64121;48.666;8.114;2022-12-18T11:25:51;101411.25;;;-4.93;86.90
75538;BME280;64121;48.666;8.114;2022-12-18T11:28:26;101411.91;;;-4.97;86.96
75538;BME280;64121;48.666;8.114;2022-12-18T11:31:09;101404.41;;;-5.55;87.85
75538;BME280;64121;48.666;8.114;2022-12-18T11:33:41;101396.88;;;-5.13;87.39
75538;BME280;64121;48.666;8.114;2022-12-18T11:36:09;101406.84;;;-4.87;86.54
75538;BME280;64121;48.666;8.114;2022-12-18T11:38:37;101397.66;;;-4.86;87.63
75538;BME280;64121;48.666;8.114;2022-12-18T11:41:07;101397.53;;;-5.31;87.23
75538;BME280;64121;48.666;8.114;2022-12-18T11:43:43;101378.47;;;-4.91;86.90
75538;BME280;64121;48.666;8.114;2022-12-18T11:46:13;101383.09;;;-5.11;86.78
75538;BME280;64121;48.666;8.114;2022-12-18T11:48:44;101370.94;;;-4.82;86.96
75538;BME280;64121;48.666;8.114;2022-12-18T11:51:16;101374.38;;;-5.20;87.29
75538;BME280;64121;48.666;8.114;2022-12-18T11:53:44;101374.16;;;-5.32;88.11
75538;BME280;64121;48.666;8.114;2022-12-18T11:56:26;101376.44;;;-5.29;87.43
75538;BME280;64121;48.666;8.114;2022-12-18T11:59:02;101361.00;;;-5.41;87.77
75538;BME280;64121;48.666;8.114;2022-12-18T12:01:39;101368.31;;;-5.82;88.95
75538;BME280;64121;48.666;8.114;2022-12-18T12:07:12;101349.56;;;-5.37;89.53
75538;BME280;64121;48.666;8.114;2022-12-18T12:09:44;101358.09;;;-5.20;88.60
75538;BME280;64121;48.666;8.114;2022-12-18T12:12:21;101359.78;;;-5.32;89.02
75538;BME280;64121;48.666;8.114;2022-12-18T12:14:54;101359.56;;;-5.31;88.58
75538;BME280;64121;48.666;8.114;2022-12-18T12:17:30;101359.97;;;-5.21;88.80
75538;BME280;64121;48.666;8.114;2022-12-18T12:20:04;101363.47;;;-5.00;88.69
75538;BME280;64121;48.666;8.114;2022-12-18T12:22:38;101356.13;;;-4.93;88.91
75538;BME280;64121;48.666;8.114;2022-12-18T12:25:19;101353.34;;;-4.73;88.44
75538;BME280;64121;48.666;8.114;2022-12-18T12:27:53;101344.38;;;-4.29;86.46
75538;BME280;64121;48.666;8.114;2022-12-18T12:30:29;101348.06;;;-4.55;86.89
75538;BME280;64121;48.666;8.114;2022-12-18T12:33:07;101354.00;;;-4.78;86.96
75538;BME280;64121;48.666;8.114;2022-12-18T12:35:44;101356.09;;;-4.80;86.93
75538;BME280;64121;48.666;8.114;2022-12-18T12:38:13;101364.63;;;-4.70;87.40
75538;BME280;64121;48.666;8.114;2022-12-18T12:40:43;101375.88;;;-4.66;86.64
75538;BME280;64121;48.666;8.114;2022-12-18T12:43:19;101368.13;;;-4.56;86.32
75538;BME280;64121;48.666;8.114;2022-12-18T12:45:48;101356.38;;;-4.50;85.90
75538;BME280;64121;48.666;8.114;2022-12-18T12:48:19;101351.22;;;-4.58;85.53
75538;BME280;64121;48.666;8.114;2022-12-18T12:50:47;101353.25;;;-4.98;86.57
75538;BME280;64121;48.666;8.114;2022-12-18T12:53:25;101343.59;;;-4.88;87.55
75538;BME280;64121;48.666;8.114;2022-12-18T12:55:52;101337.75;;;-4.91;87.76